Hyundai Forward — 3EJY9 — position and weather

sailwx.info

Track history (hours):
 
Tides and Currents Weather Stations Pressure Air Temp Water Temp Dewpoint Dewpoint Depression Visibility Wind Speed Wind Dir Waves Ship Positions

Hyundai Forward

Last reported at 2017-Jan-21 01:17 UTC. Time now 2017-Jan-22 01:37 UTC.
Position N 31°06' E 122°28'.

Length 295 m; draft 10 m.

Type: Cargo ship. MMSI: 372652000.

Date/timePositionNaut miles runAvg speedWind from/ knotsBaromVisibWave heightAir tempDewpointWater temp
2017-Jan-21 01:17N 31°06' E 122°28'6 8.1
2017-Jan-21 00:33N 31°11' E 122°26'0 0.3
2017-Jan-20 23:33N 31°12' E 122°26'0 0.0
2017-Jan-20 22:33N 31°12' E 122°26'0 0.1
2017-Jan-20 21:18N 31°12' E 122°26'0 0.2
2017-Jan-20 20:33N 31°11' E 122°26'0 0.1
2017-Jan-20 19:30N 31°11' E 122°26'0 0.1
2017-Jan-20 18:33N 31°11' E 122°26'5 4.7
2017-Jan-20 17:33N 31°07' E 122°26'1313.3
2017-Jan-20 16:34N 31°10' E 122°11'1414.0
2017-Jan-20 15:34N 31°15' E 121°56'1413.9
2017-Jan-20 14:33N 31°20' E 121°41'5 4.6
2017-Jan-20 13:31N 31°22' E 121°35'0 0.0
2017-Jan-20 12:31N 31°22' E 121°35'0 0.0
2017-Jan-20 11:31N 31°22' E 121°35'0 0.0
2017-Jan-20 10:31N 31°22' E 121°35'0 0.0
2017-Jan-20 09:22N 31°22' E 121°35'0 0.0
2017-Jan-20 08:31N 31°22' E 121°35'0 0.1
2017-Jan-20 07:34N 31°22' E 121°35'1 1.3
2017-Jan-20 06:33N 31°22' E 121°37'2 2.1
2017-Jan-20 05:33N 31°21' E 121°39'5 5.1
2017-Jan-20 04:33N 31°19' E 121°44'8 7.5
2017-Jan-20 03:33N 31°16' E 121°53'8 8.0
2017-Jan-20 02:33N 31°15' E 122°02'10 9.5
2017-Jan-20 01:33N 31°10' E 122°12'1211.8
2017-Jan-20 00:34N 31°06' E 122°25'  
2017-Jan-13 00:33N 38°17' E 121°28'1312.4
2017-Jan-12 23:33N 38°23' E 121°15'1212.4
2017-Jan-12 22:33N 38°29' E 121°01'1211.8
2017-Jan-12 21:33N 38°34' E 120°47'  
Track history (hours):
 
Tides and Currents Weather Stations Pressure Air Temp Water Temp Dewpoint Dewpoint Depression Visibility Wind Speed Wind Dir Waves Ship Positions

Hyundai Forward

Last reported at 2017-Jan-21 01:17 UTC. Time now 2017-Jan-22 01:37 UTC.
Position N 31°06' E 122°28'.

Length 295 m; draft 10 m.

Type: Cargo ship. MMSI: 372652000.

Date/timePositionNaut miles runAvg speedWind from/ knotsBaromVisibWave heightAir tempDewpointWater temp
2017-Jan-21 01:17N 31°06' E 122°28'6 8.1
2017-Jan-21 00:33N 31°11' E 122°26'0 0.3
2017-Jan-20 23:33N 31°12' E 122°26'0 0.0
2017-Jan-20 22:33N 31°12' E 122°26'0 0.1
2017-Jan-20 21:18N 31°12' E 122°26'0 0.2
2017-Jan-20 20:33N 31°11' E 122°26'0 0.1
2017-Jan-20 19:30N 31°11' E 122°26'0 0.1
2017-Jan-20 18:33N 31°11' E 122°26'5 4.7
2017-Jan-20 17:33N 31°07' E 122°26'1313.3
2017-Jan-20 16:34N 31°10' E 122°11'1414.0
2017-Jan-20 15:34N 31°15' E 121°56'1413.9
2017-Jan-20 14:33N 31°20' E 121°41'5 4.6
2017-Jan-20 13:31N 31°22' E 121°35'0 0.0
2017-Jan-20 12:31N 31°22' E 121°35'0 0.0
2017-Jan-20 11:31N 31°22' E 121°35'0 0.0
2017-Jan-20 10:31N 31°22' E 121°35'0 0.0
2017-Jan-20 09:22N 31°22' E 121°35'0 0.0
2017-Jan-20 08:31N 31°22' E 121°35'0 0.1
2017-Jan-20 07:34N 31°22' E 121°35'1 1.3
2017-Jan-20 06:33N 31°22' E 121°37'2 2.1
2017-Jan-20 05:33N 31°21' E 121°39'5 5.1
2017-Jan-20 04:33N 31°19' E 121°44'8 7.5
2017-Jan-20 03:33N 31°16' E 121°53'8 8.0
2017-Jan-20 02:33N 31°15' E 122°02'10 9.5
2017-Jan-20 01:33N 31°10' E 122°12'1211.8
2017-Jan-20 00:34N 31°06' E 122°25'  
2017-Jan-13 00:33N 38°17' E 121°28'1312.4
2017-Jan-12 23:33N 38°23' E 121°15'1212.4
2017-Jan-12 22:33N 38°29' E 121°01'1211.8
2017-Jan-12 21:33N 38°34' E 120°47'  

Dump ship's entire track history